createdAt,value
2018-12-07T00:00:55.164Z,820.16
2018-12-07T00:01:55.175Z,820.17
2018-12-07T00:02:55.181Z,820.17
2018-12-07T00:03:55.189Z,820.19
2018-12-07T00:04:55.201Z,820.18
2018-12-07T00:05:55.211Z,820.15
2018-12-07T00:06:55.219Z,820.21
2018-12-07T00:07:55.229Z,820.19
2018-12-07T00:08:55.239Z,820.17
2018-12-07T00:09:55.251Z,820.16
2018-12-07T00:10:55.260Z,820.19
2018-12-07T00:11:55.265Z,820.15
2018-12-07T00:12:55.279Z,820.19
2018-12-07T00:13:55.283Z,820.21
2018-12-07T00:14:55.293Z,820.16
2018-12-07T00:15:55.302Z,820.19
2018-12-07T00:16:55.311Z,820.18
2018-12-07T00:17:55.325Z,820.18
2018-12-07T00:18:55.328Z,820.22
2018-12-07T00:19:55.338Z,820.26
2018-12-07T00:20:55.353Z,820.22
2018-12-07T00:21:55.367Z,820.23
2018-12-07T00:22:55.367Z,820.20
2018-12-07T00:23:55.376Z,820.19
2018-12-07T00:24:55.389Z,820.21
2018-12-07T00:25:55.395Z,820.20
2018-12-07T00:26:55.401Z,820.19
2018-12-07T00:27:55.412Z,820.21
2018-12-07T00:28:55.424Z,820.23
2018-12-07T00:29:55.431Z,820.24
2018-12-07T00:30:55.440Z,820.23
2018-12-07T00:31:55.451Z,820.21
2018-12-07T00:32:55.459Z,820.22
2018-12-07T00:33:55.467Z,820.20
2018-12-07T00:34:55.476Z,820.23
2018-12-07T00:35:55.486Z,820.23
2018-12-07T00:36:55.495Z,820.24
2018-12-07T00:37:55.505Z,820.27
2018-12-07T00:38:55.513Z,820.23
2018-12-07T00:39:55.522Z,820.24
2018-12-07T00:40:55.530Z,820.28
2018-12-07T00:41:55.541Z,820.26
2018-12-07T00:42:55.548Z,820.27
2018-12-07T00:43:55.565Z,820.26
2018-12-07T00:44:55.569Z,820.24
2018-12-07T00:45:55.578Z,820.24
2018-12-07T00:46:55.585Z,820.23
2018-12-07T00:47:55.599Z,820.22
2018-12-07T00:48:55.606Z,820.24
2018-12-07T00:49:55.618Z,820.20
2018-12-07T00:50:55.624Z,820.22
2018-12-07T00:51:55.634Z,820.23
2018-12-07T00:52:55.645Z,820.21
2018-12-07T00:53:55.651Z,820.21
2018-12-07T00:54:55.664Z,820.21
2018-12-07T00:55:55.669Z,820.16
2018-12-07T00:56:55.678Z,820.14
2018-12-07T00:57:55.688Z,820.14
2018-12-07T00:58:55.697Z,820.11
2018-12-07T00:59:55.705Z,820.13
2018-12-07T01:00:55.716Z,820.15
2018-12-07T01:01:55.724Z,820.07
2018-12-07T01:02:55.733Z,820.05
2018-12-07T01:03:55.745Z,820.04
2018-12-07T01:04:55.751Z,820.03
2018-12-07T01:05:55.766Z,820.04
2018-12-07T01:06:55.771Z,820.04
2018-12-07T01:07:55.781Z,819.96
2018-12-07T01:08:55.793Z,820.00
2018-12-07T01:09:55.801Z,820.00
2018-12-07T01:10:55.807Z,819.99
2018-12-07T01:11:55.818Z,820.01
2018-12-07T01:12:55.828Z,819.95
2018-12-07T01:13:55.839Z,819.96
2018-12-07T01:14:55.847Z,819.95
2018-12-07T01:15:55.857Z,819.93
2018-12-07T01:16:55.866Z,819.93
2018-12-07T01:17:55.872Z,819.90
2018-12-07T01:18:55.886Z,819.87
2018-12-07T01:19:55.893Z,819.86
2018-12-07T01:20:55.905Z,819.88
2018-12-07T01:21:55.924Z,819.91
2018-12-07T01:22:55.943Z,819.86
2018-12-07T01:23:55.934Z,819.88
2018-12-07T01:24:55.943Z,819.89
2018-12-07T01:25:55.952Z,819.87
2018-12-07T01:26:55.959Z,819.85
2018-12-07T01:27:55.970Z,819.84
2018-12-07T01:28:55.979Z,819.82
2018-12-07T01:29:55.987Z,819.79
2018-12-07T01:30:55.997Z,819.80
2018-12-07T01:31:56.006Z,819.80
2018-12-07T01:32:56.016Z,819.82
2018-12-07T01:33:56.028Z,819.79
2018-12-07T01:34:56.036Z,819.83
2018-12-07T01:35:56.044Z,819.87
2018-12-07T01:36:56.055Z,819.85
2018-12-07T01:37:56.068Z,819.88
2018-12-07T01:38:56.077Z,819.85
2018-12-07T01:39:56.083Z,819.82
2018-12-07T01:40:56.093Z,819.84
2018-12-07T01:41:56.106Z,819.85
2018-12-07T01:42:56.111Z,819.79
2018-12-07T01:43:56.121Z,819.83
2018-12-07T01:44:56.130Z,819.79
2018-12-07T01:45:56.140Z,819.80
2018-12-07T01:46:56.149Z,819.78
2018-12-07T01:47:56.160Z,819.79
2018-12-07T01:48:56.167Z,819.76
2018-12-07T01:49:56.178Z,819.76
2018-12-07T01:50:56.185Z,819.69
2018-12-07T01:51:56.197Z,819.73
2018-12-07T01:52:56.210Z,819.70
2018-12-07T01:53:56.215Z,819.66
2018-12-07T01:54:56.223Z,819.66
2018-12-07T01:55:56.233Z,819.66
2018-12-07T01:56:56.243Z,819.64
2018-12-07T01:57:56.253Z,819.60
2018-12-07T01:58:56.262Z,819.61
2018-12-07T01:59:56.273Z,819.60
2018-12-07T02:00:56.283Z,819.60
2018-12-07T02:01:56.289Z,819.56
2018-12-07T02:02:56.299Z,819.60
2018-12-07T02:03:56.307Z,819.58
2018-12-07T02:04:56.316Z,819.60
2018-12-07T02:05:56.327Z,819.58
2018-12-07T02:06:56.335Z,819.63
2018-12-07T02:07:56.344Z,819.58
2018-12-07T02:08:56.354Z,819.54
2018-12-07T02:09:56.367Z,819.58
2018-12-07T02:10:56.373Z,819.56
2018-12-07T02:11:56.384Z,819.57
2018-12-07T02:12:56.392Z,819.52
2018-12-07T02:13:56.401Z,819.51
2018-12-07T02:14:56.410Z,819.50
2018-12-07T02:15:56.421Z,819.47
2018-12-07T02:16:56.430Z,819.48
2018-12-07T02:17:56.441Z,819.43
2018-12-07T02:18:56.446Z,819.42
2018-12-07T02:19:56.457Z,819.39
2018-12-07T02:20:56.466Z,819.39
2018-12-07T02:21:56.476Z,819.37
2018-12-07T02:22:56.485Z,819.36
2018-12-07T02:23:56.492Z,819.33
2018-12-07T02:24:56.505Z,819.32
2018-12-07T02:25:56.514Z,819.30
2018-12-07T02:26:56.521Z,819.30
2018-12-07T02:27:56.533Z,819.28
2018-12-07T02:28:56.542Z,819.26
2018-12-07T02:29:56.552Z,819.27
2018-12-07T02:30:56.560Z,819.24
2018-12-07T02:31:56.573Z,819.23
2018-12-07T02:32:56.580Z,819.20
2018-12-07T02:33:56.589Z,819.19
2018-12-07T02:34:56.599Z,819.18
2018-12-07T02:35:56.613Z,819.22
2018-12-07T02:36:56.618Z,819.20
2018-12-07T02:37:56.629Z,819.26
2018-12-07T02:38:56.638Z,819.24
2018-12-07T02:39:56.644Z,819.22
2018-12-07T02:40:56.654Z,819.20
2018-12-07T02:41:56.664Z,819.17
2018-12-07T02:42:56.676Z,819.23
2018-12-07T02:43:56.683Z,819.20
2018-12-07T02:44:56.692Z,819.17
2018-12-07T02:45:56.702Z,819.19
2018-12-07T02:46:56.709Z,819.19
2018-12-07T02:47:56.722Z,819.17
2018-12-07T02:48:56.732Z,819.19
2018-12-07T02:49:56.741Z,819.14
2018-12-07T02:50:56.747Z,819.13
2018-12-07T02:51:56.767Z,819.13
2018-12-07T02:52:56.767Z,819.13
2018-12-07T02:53:56.777Z,819.11
2018-12-07T02:54:56.788Z,819.04
2018-12-07T02:55:56.796Z,819.04
2018-12-07T02:56:56.806Z,819.01
2018-12-07T02:57:56.816Z,819.03
2018-12-07T02:58:56.824Z,819.02
2018-12-07T02:59:56.832Z,819.01
2018-12-07T03:00:56.854Z,818.99
2018-12-07T03:01:56.853Z,818.98
2018-12-07T03:02:56.862Z,818.95
2018-12-07T03:03:56.870Z,818.99
2018-12-07T03:04:56.882Z,818.95
2018-12-07T03:05:56.893Z,818.95
2018-12-07T03:06:56.902Z,818.93
2018-12-07T03:07:56.911Z,818.92
2018-12-07T03:08:56.920Z,818.92
2018-12-07T03:09:56.930Z,818.93
2018-12-07T03:10:56.939Z,818.92
2018-12-07T03:11:56.946Z,818.91
2018-12-07T03:12:56.957Z,818.92
2018-12-07T03:13:56.969Z,818.90
2018-12-07T03:14:56.977Z,818.85
2018-12-07T03:15:56.988Z,818.86
2018-12-07T03:16:56.997Z,818.83
2018-12-07T03:17:57.002Z,818.83
2018-12-07T03:18:57.013Z,818.84
2018-12-07T03:19:57.025Z,818.84
2018-12-07T03:20:57.033Z,818.80
2018-12-07T03:21:57.047Z,818.80
2018-12-07T03:22:57.052Z,818.76
2018-12-07T03:23:57.061Z,818.74
2018-12-07T03:24:57.069Z,818.74
2018-12-07T03:25:57.080Z,818.72
2018-12-07T03:26:57.091Z,818.69
2018-12-07T03:27:57.097Z,818.67
2018-12-07T03:28:57.114Z,818.65
2018-12-07T03:29:57.117Z,818.63
2018-12-07T03:30:57.127Z,818.61
2018-12-07T03:31:57.136Z,818.61
2018-12-07T03:32:57.146Z,818.65
2018-12-07T03:33:57.152Z,818.62
2018-12-07T03:34:57.163Z,818.65
2018-12-07T03:35:57.174Z,818.64
2018-12-07T03:36:57.183Z,818.63
2018-12-07T03:37:57.192Z,818.65
2018-12-07T03:38:57.202Z,818.66
2018-12-07T03:39:57.214Z,818.67
2018-12-07T03:40:57.221Z,818.68
2018-12-07T03:41:57.234Z,818.68
2018-12-07T03:42:57.238Z,818.67
2018-12-07T03:43:57.247Z,818.62
2018-12-07T03:44:57.258Z,818.62
2018-12-07T03:45:57.266Z,818.62
2018-12-07T03:46:57.281Z,818.60
2018-12-07T03:47:57.284Z,818.64
2018-12-07T03:48:57.300Z,818.66
2018-12-07T03:49:57.303Z,818.61
2018-12-07T03:50:57.311Z,818.69
2018-12-07T03:51:57.321Z,818.64
2018-12-07T03:52:57.332Z,818.60
2018-12-07T03:53:57.344Z,818.59
2018-12-07T03:54:57.355Z,818.55
2018-12-07T03:55:57.359Z,818.58
2018-12-07T03:56:57.369Z,818.60
2018-12-07T03:57:57.383Z,818.57
2018-12-07T03:58:57.388Z,818.58
2018-12-07T03:59:57.396Z,818.57
2018-12-07T04:00:57.408Z,818.56
2018-12-07T04:01:57.416Z,818.56
2018-12-07T04:02:57.424Z,818.56
2018-12-07T04:03:57.436Z,818.55
2018-12-07T04:04:57.453Z,818.55
2018-12-07T04:05:57.452Z,818.53
2018-12-07T04:06:57.460Z,818.51
2018-12-07T04:07:57.474Z,818.50
2018-12-07T04:08:57.482Z,818.47
2018-12-07T04:09:57.493Z,818.47
2018-12-07T04:10:57.498Z,818.46
2018-12-07T04:11:57.509Z,818.46
2018-12-07T04:12:57.519Z,818.46
2018-12-07T04:13:57.525Z,818.42
2018-12-07T04:14:57.537Z,818.42
2018-12-07T04:15:57.545Z,818.43
2018-12-07T04:16:57.554Z,818.41
2018-12-07T04:17:57.563Z,818.42
2018-12-07T04:18:57.572Z,818.39
2018-12-07T04:19:57.585Z,818.41
2018-12-07T04:20:57.592Z,818.40
2018-12-07T04:21:57.604Z,818.38
2018-12-07T04:22:57.611Z,818.39
2018-12-07T04:23:57.617Z,818.37
2018-12-07T04:24:57.631Z,818.39
2018-12-07T04:25:57.638Z,818.37
2018-12-07T04:26:57.646Z,818.32
2018-12-07T04:27:57.655Z,818.30
2018-12-07T04:28:57.663Z,818.26
2018-12-07T04:29:57.678Z,818.30
2018-12-07T04:30:57.683Z,818.28
2018-12-07T04:31:57.691Z,818.25
2018-12-07T04:32:57.705Z,818.27
2018-12-07T04:33:57.714Z,818.27
2018-12-07T04:34:57.720Z,818.27
2018-12-07T04:35:57.729Z,818.26
2018-12-07T04:36:57.737Z,818.26
2018-12-07T04:37:57.747Z,818.25
2018-12-07T04:38:57.757Z,818.25
2018-12-07T04:39:57.764Z,818.25
2018-12-07T04:40:57.778Z,818.26
2018-12-07T04:41:57.785Z,818.25
2018-12-07T04:42:57.795Z,818.26
2018-12-07T04:43:57.805Z,818.27
2018-12-07T04:44:57.812Z,818.26
2018-12-07T04:45:57.829Z,818.26
2018-12-07T04:46:57.831Z,818.26
2018-12-07T04:47:57.837Z,818.25
2018-12-07T04:48:57.847Z,818.25
2018-12-07T04:49:57.858Z,818.23
2018-12-07T04:50:57.867Z,818.23
2018-12-07T04:51:57.880Z,818.23
2018-12-07T04:52:57.887Z,818.16
2018-12-07T04:53:57.904Z,818.17
2018-12-07T04:54:57.903Z,818.18
2018-12-07T04:55:57.918Z,818.18
2018-12-07T04:56:57.921Z,818.18
2018-12-07T04:57:57.933Z,818.20
2018-12-07T04:58:57.943Z,818.16
2018-12-07T04:59:57.951Z,818.20
2018-12-07T05:00:57.965Z,818.20
2018-12-07T05:01:57.970Z,818.22
2018-12-07T05:02:57.978Z,818.23
2018-12-07T05:03:57.985Z,818.21
2018-12-07T05:04:58.000Z,818.23
2018-12-07T05:05:58.006Z,818.25
2018-12-07T05:06:58.013Z,818.26
2018-12-07T05:07:58.022Z,818.24
2018-12-07T05:08:58.032Z,818.26
2018-12-07T05:09:58.042Z,818.26
2018-12-07T05:10:58.050Z,818.23
2018-12-07T05:11:58.060Z,818.20
2018-12-07T05:12:58.070Z,818.21
2018-12-07T05:13:58.080Z,818.21
2018-12-07T05:14:58.087Z,818.20
2018-12-07T05:15:58.099Z,818.15
2018-12-07T05:16:58.107Z,818.16
2018-12-07T05:17:58.117Z,818.11
2018-12-07T05:18:58.125Z,818.16
2018-12-07T05:19:58.138Z,818.09
2018-12-07T05:20:58.145Z,818.12
2018-12-07T05:21:58.155Z,818.06
2018-12-07T05:22:58.161Z,818.10
2018-12-07T05:23:58.170Z,818.10
2018-12-07T05:24:58.181Z,818.09
2018-12-07T05:25:58.195Z,818.10
2018-12-07T05:26:58.200Z,818.10
2018-12-07T05:27:58.211Z,818.13
2018-12-07T05:28:58.220Z,818.10
2018-12-07T05:29:58.236Z,818.12
2018-12-07T05:30:58.235Z,818.12
2018-12-07T05:31:58.250Z,818.11
2018-12-07T05:32:58.254Z,818.07
2018-12-07T05:33:58.264Z,818.12
2018-12-07T05:34:58.273Z,818.11
2018-12-07T05:35:58.284Z,818.12
2018-12-07T05:36:58.294Z,818.12
2018-12-07T05:37:58.305Z,818.09
2018-12-07T05:38:58.310Z,818.10
2018-12-07T05:39:58.322Z,818.14
2018-12-07T05:40:58.331Z,818.10
2018-12-07T05:41:58.341Z,818.07
2018-12-07T05:42:58.350Z,818.08
2018-12-07T05:43:58.363Z,818.06
2018-12-07T05:44:58.368Z,818.10
2018-12-07T05:45:58.379Z,818.02
2018-12-07T05:46:58.389Z,818.03
2018-12-07T05:47:58.395Z,818.02
2018-12-07T05:48:58.403Z,817.98
2018-12-07T05:49:58.416Z,817.99
2018-12-07T05:50:58.423Z,817.99
2018-12-07T05:51:58.438Z,817.98
2018-12-07T05:52:58.451Z,817.97
2018-12-07T05:53:58.452Z,817.95
2018-12-07T05:54:58.462Z,817.95
2018-12-07T05:55:58.471Z,817.95
2018-12-07T05:56:58.483Z,817.95
2018-12-07T05:57:58.491Z,817.95
2018-12-07T05:58:58.499Z,817.94
2018-12-07T05:59:58.509Z,817.91
2018-12-07T06:00:58.519Z,817.89
2018-12-07T06:01:58.528Z,817.91
2018-12-07T06:02:58.539Z,817.89
2018-12-07T06:03:58.548Z,817.89
2018-12-07T06:04:58.557Z,817.87
2018-12-07T06:05:58.565Z,817.84
2018-12-07T06:06:58.575Z,817.82
2018-12-07T06:07:58.582Z,817.82
2018-12-07T06:08:58.594Z,817.80
2018-12-07T06:09:58.603Z,817.81
2018-12-07T06:10:58.613Z,817.78
2018-12-07T06:11:58.621Z,817.78
2018-12-07T06:12:58.632Z,817.74
2018-12-07T06:13:58.639Z,817.75
2018-12-07T06:14:58.651Z,817.68
2018-12-07T06:15:58.658Z,817.71
2018-12-07T06:16:58.668Z,817.68
2018-12-07T06:17:58.678Z,817.69
2018-12-07T06:18:58.686Z,817.66
2018-12-07T06:19:58.694Z,817.67
2018-12-07T06:20:58.706Z,817.64
2018-12-07T06:21:58.715Z,817.64
2018-12-07T06:22:58.722Z,817.67
2018-12-07T06:23:58.735Z,817.62
2018-12-07T06:24:58.740Z,817.64
2018-12-07T06:25:58.752Z,817.67
2018-12-07T06:26:58.762Z,817.60
2018-12-07T06:27:58.774Z,817.62
2018-12-07T06:28:58.778Z,817.64
2018-12-07T06:29:58.789Z,817.62
2018-12-07T06:30:58.798Z,817.63
2018-12-07T06:31:58.810Z,817.61
2018-12-07T06:32:58.820Z,817.62
2018-12-07T06:33:58.827Z,817.58
2018-12-07T06:34:58.836Z,817.61
2018-12-07T06:35:58.846Z,817.58
2018-12-07T06:36:58.855Z,817.61
2018-12-07T06:37:58.866Z,817.61
2018-12-07T06:38:58.872Z,817.64
2018-12-07T06:39:58.885Z,817.68
2018-12-07T06:40:58.894Z,817.64
2018-12-07T06:41:58.908Z,817.60
2018-12-07T06:42:58.913Z,817.64
2018-12-07T06:43:58.919Z,817.64
2018-12-07T06:44:58.935Z,817.63
2018-12-07T06:45:58.938Z,817.65
2018-12-07T06:46:58.948Z,817.62
2018-12-07T06:47:58.958Z,817.65
2018-12-07T06:48:58.968Z,817.64
2018-12-07T06:49:58.976Z,817.63
2018-12-07T06:50:58.985Z,817.66
2018-12-07T06:51:58.995Z,817.67
2018-12-07T06:52:59.004Z,817.64
2018-12-07T06:53:59.018Z,817.63
2018-12-07T06:54:59.024Z,817.64
2018-12-07T06:55:59.041Z,817.65
2018-12-07T06:56:59.045Z,817.64
2018-12-07T06:57:59.050Z,817.65
2018-12-07T06:58:59.060Z,817.68
2018-12-07T06:59:59.071Z,817.69
2018-12-07T07:00:59.078Z,817.71
2018-12-07T07:01:59.089Z,817.73
2018-12-07T07:02:59.099Z,817.70
2018-12-07T07:03:59.107Z,817.73
2018-12-07T07:04:59.120Z,817.76
2018-12-07T07:05:59.127Z,817.74
2018-12-07T07:06:59.140Z,817.73
2018-12-07T07:07:59.144Z,817.76
2018-12-07T07:08:59.162Z,817.76
2018-12-07T07:09:59.167Z,817.76
2018-12-07T07:10:59.173Z,817.74
2018-12-07T07:11:59.183Z,817.77
2018-12-07T07:12:59.199Z,817.76
2018-12-07T07:13:59.201Z,817.78
2018-12-07T07:14:59.210Z,817.73
2018-12-07T07:15:59.221Z,817.76
2018-12-07T07:16:59.228Z,817.74
2018-12-07T07:17:59.239Z,817.73
2018-12-07T07:18:59.249Z,817.66
2018-12-07T07:19:59.257Z,817.66
2018-12-07T07:20:59.266Z,817.69
2018-12-07T07:21:59.283Z,817.73
2018-12-07T07:22:59.286Z,817.72
2018-12-07T07:23:59.298Z,817.70
2018-12-07T07:24:59.303Z,817.75
2018-12-07T07:25:59.316Z,817.71
2018-12-07T07:26:59.322Z,817.68
2018-12-07T07:27:59.333Z,817.72
2018-12-07T07:28:59.349Z,817.67
2018-12-07T07:29:59.353Z,817.69
2018-12-07T07:30:59.362Z,817.70
2018-12-07T07:31:59.372Z,817.74
2018-12-07T07:32:59.381Z,817.74
2018-12-07T07:33:59.390Z,817.67
2018-12-07T07:34:59.401Z,817.73
2018-12-07T07:35:59.409Z,817.71
2018-12-07T07:36:59.424Z,817.71
2018-12-07T07:37:59.431Z,817.70
2018-12-07T07:38:59.437Z,817.69
2018-12-07T07:39:59.451Z,817.72
2018-12-07T07:40:59.456Z,817.72
2018-12-07T07:41:59.467Z,817.73
2018-12-07T07:42:59.474Z,817.73
2018-12-07T07:43:59.487Z,817.72
2018-12-07T07:44:59.494Z,817.69
2018-12-07T07:45:59.506Z,817.70
2018-12-07T07:46:59.516Z,817.71
2018-12-07T07:47:59.524Z,817.71
2018-12-07T07:48:59.534Z,817.76
2018-12-07T07:49:59.543Z,817.75
2018-12-07T07:50:59.552Z,817.73
2018-12-07T07:51:59.566Z,817.78
2018-12-07T07:52:59.572Z,817.75
2018-12-07T07:53:59.583Z,817.75
2018-12-07T07:54:59.594Z,817.80
2018-12-07T07:55:59.600Z,817.78
2018-12-07T07:56:59.615Z,817.78
2018-12-07T07:57:59.622Z,817.77
2018-12-07T07:58:59.629Z,817.80
2018-12-07T07:59:59.641Z,817.79
2018-12-07T08:00:59.651Z,817.82
2018-12-07T08:01:59.658Z,817.79
2018-12-07T08:02:59.993Z,817.80
2018-12-07T08:03:59.679Z,817.81
2018-12-07T08:04:59.688Z,817.82
2018-12-07T08:05:59.698Z,817.81
2018-12-07T08:06:59.711Z,817.79
2018-12-07T08:07:59.720Z,817.81
2018-12-07T08:08:59.729Z,817.80
2018-12-07T08:09:59.737Z,817.79
2018-12-07T08:10:59.745Z,817.83
2018-12-07T08:11:59.758Z,817.82
2018-12-07T08:12:59.768Z,817.79
2018-12-07T08:13:59.781Z,817.78
2018-12-07T08:14:59.784Z,817.77
2018-12-07T08:15:59.804Z,817.69
2018-12-07T08:16:59.808Z,817.72
2018-12-07T08:17:59.818Z,817.71
2018-12-07T08:18:59.824Z,817.68
2018-12-07T08:19:59.835Z,817.71
2018-12-07T08:20:59.846Z,817.70
2018-12-07T08:21:59.855Z,817.68
2018-12-07T08:22:59.874Z,817.68
2018-12-07T08:23:59.881Z,817.65
2018-12-07T08:24:59.890Z,817.68
2018-12-07T08:25:59.898Z,817.63
2018-12-07T08:26:59.908Z,817.65
2018-12-07T08:27:59.919Z,817.62
2018-12-07T08:28:59.927Z,817.65
2018-12-07T08:29:59.939Z,817.60
2018-12-07T08:30:59.946Z,817.58
2018-12-07T08:31:59.961Z,817.52
2018-12-07T08:32:59.966Z,817.52
2018-12-07T08:34:00.341Z,817.45
2018-12-07T08:34:59.990Z,817.40
2018-12-07T08:35:59.996Z,817.35
2018-12-07T08:37:00.009Z,817.35
2018-12-07T08:38:00.017Z,817.31
2018-12-07T08:39:00.025Z,817.28
2018-12-07T08:40:00.040Z,817.28
2018-12-07T08:41:00.049Z,817.35
2018-12-07T08:42:06.551Z,817.34
2018-12-07T08:43:00.072Z,817.31
2018-12-07T08:44:00.081Z,817.34
2018-12-07T08:45:00.087Z,817.32
2018-12-07T08:46:00.105Z,817.35
2018-12-07T08:47:00.108Z,817.34
2018-12-07T08:48:00.124Z,817.31
2018-12-07T08:49:00.131Z,817.31
2018-12-07T08:50:00.143Z,817.30
2018-12-07T08:51:00.152Z,817.27
2018-12-07T08:52:00.161Z,817.27
2018-12-07T08:53:00.171Z,817.27
2018-12-07T08:54:00.182Z,817.22
2018-12-07T08:55:00.193Z,817.23
2018-12-07T08:56:00.200Z,817.20
2018-12-07T08:57:00.214Z,817.15
2018-12-07T08:58:00.287Z,817.18
2018-12-07T08:59:00.235Z,817.14
2018-12-07T09:00:00.244Z,817.13
2018-12-07T09:01:00.254Z,817.15
2018-12-07T09:02:00.264Z,817.12
2018-12-07T09:03:00.273Z,817.14
2018-12-07T09:04:00.287Z,817.10
2018-12-07T09:05:00.293Z,817.16
2018-12-07T09:06:00.307Z,817.18
2018-12-07T09:07:00.317Z,817.18
2018-12-07T09:08:00.326Z,817.21
2018-12-07T09:09:00.336Z,817.19
2018-12-07T09:10:00.348Z,817.19
2018-12-07T09:11:00.359Z,817.21
2018-12-07T09:12:00.393Z,817.23
2018-12-07T09:13:00.379Z,817.19
2018-12-07T09:14:00.391Z,817.18
2018-12-07T09:15:00.402Z,817.19
2018-12-07T09:16:00.413Z,817.15
2018-12-07T09:17:00.421Z,817.13
2018-12-07T09:18:00.434Z,817.13
2018-12-07T09:19:00.442Z,817.14
2018-12-07T09:20:00.453Z,817.12
2018-12-07T09:21:00.470Z,817.16
2018-12-07T09:22:00.475Z,817.17
2018-12-07T09:23:00.486Z,817.13
2018-12-07T09:24:00.496Z,817.18
2018-12-07T09:25:00.508Z,817.14
2018-12-07T09:26:00.518Z,817.16
2018-12-07T09:27:00.528Z,817.10
2018-12-07T09:28:00.539Z,817.11
2018-12-07T09:29:00.551Z,817.08
2018-12-07T09:30:00.564Z,817.06
2018-12-07T09:31:00.573Z,817.11
2018-12-07T09:32:00.582Z,817.07
2018-12-07T09:33:00.595Z,817.08
2018-12-07T09:34:00.604Z,817.10
2018-12-07T09:35:00.615Z,817.07
2018-12-07T09:36:00.625Z,817.07
2018-12-07T09:37:00.637Z,817.08
2018-12-07T09:38:00.649Z,817.05
2018-12-07T09:39:00.657Z,816.99
2018-12-07T09:40:00.682Z,817.02
2018-12-07T09:41:00.681Z,816.99
2018-12-07T09:42:00.696Z,816.97
2018-12-07T09:43:00.703Z,816.99
2018-12-07T09:44:00.716Z,816.96
2018-12-07T09:45:00.735Z,816.96
2018-12-07T09:46:00.735Z,816.93
2018-12-07T09:47:00.749Z,816.93
2018-12-07T09:48:00.759Z,816.94
2018-12-07T09:49:00.767Z,816.91
2018-12-07T09:50:00.780Z,816.89
2018-12-07T09:51:00.790Z,816.88
2018-12-07T09:52:00.802Z,816.85
2018-12-07T09:53:00.814Z,816.82
2018-12-07T09:54:00.825Z,816.82
2018-12-07T09:55:00.837Z,816.80
2018-12-07T09:56:00.847Z,816.78
2018-12-07T09:57:00.859Z,816.81
2018-12-07T09:58:00.871Z,816.79
2018-12-07T09:59:00.882Z,816.79
2018-12-07T10:00:00.897Z,816.79
2018-12-07T10:01:00.906Z,816.77
2018-12-07T10:02:00.916Z,816.74
2018-12-07T10:03:00.930Z,816.72
2018-12-07T10:04:00.940Z,816.67
2018-12-07T10:05:00.955Z,816.68
2018-12-07T10:06:00.963Z,816.67
2018-12-07T10:07:00.979Z,816.61
2018-12-07T10:08:00.984Z,816.64
2018-12-07T10:09:00.996Z,816.61
2018-12-07T10:10:01.017Z,816.58
2018-12-07T10:11:01.021Z,816.56
2018-12-07T10:12:01.033Z,816.51
2018-12-07T10:13:07.715Z,816.52
2018-12-07T10:14:01.060Z,816.52
2018-12-07T10:15:01.067Z,816.49
2018-12-07T10:16:01.078Z,816.45
2018-12-07T10:17:01.095Z,816.47
2018-12-07T10:18:01.102Z,816.46
2018-12-07T10:19:01.113Z,816.45
2018-12-07T10:20:01.130Z,816.42
2018-12-07T10:21:01.141Z,816.45
2018-12-07T10:22:01.152Z,816.41
2018-12-07T10:23:01.163Z,816.38
2018-12-07T10:24:01.175Z,816.38
2018-12-07T10:25:01.184Z,816.35
2018-12-07T10:26:01.198Z,816.28
2018-12-07T10:27:01.217Z,816.28
2018-12-07T10:28:01.222Z,816.23
2018-12-07T10:29:01.247Z,816.23
2018-12-07T10:30:01.247Z,816.22
2018-12-07T10:31:01.335Z,816.18
2018-12-07T10:32:01.280Z,816.18
2018-12-07T10:33:01.307Z,816.12
2018-12-07T10:34:01.293Z,816.13
2018-12-07T10:35:01.305Z,816.09
2018-12-07T10:36:01.317Z,816.02
2018-12-07T10:37:01.329Z,816.01
2018-12-07T10:38:01.342Z,815.96
2018-12-07T10:39:01.353Z,815.97
2018-12-07T10:40:01.364Z,815.99
2018-12-07T10:41:01.376Z,815.96
2018-12-07T10:42:01.393Z,815.95
2018-12-07T10:43:01.401Z,815.88
2018-12-07T10:44:01.415Z,815.85
2018-12-07T10:45:01.426Z,815.86
2018-12-07T10:46:01.441Z,815.83
2018-12-07T10:47:01.449Z,815.83
2018-12-07T10:48:01.462Z,815.81
2018-12-07T10:49:01.476Z,815.74
2018-12-07T10:50:01.488Z,815.75
2018-12-07T10:51:07.777Z,815.72
2018-12-07T10:52:01.515Z,815.70
2018-12-07T10:53:01.528Z,815.64
2018-12-07T10:54:01.540Z,815.63
2018-12-07T10:55:01.554Z,815.63
2018-12-07T10:56:01.565Z,815.60
2018-12-07T10:57:01.577Z,815.55
2018-12-07T10:58:01.590Z,815.56
2018-12-07T10:59:01.602Z,815.57
2018-12-07T11:00:01.620Z,815.53
2018-12-07T11:01:01.629Z,815.50
2018-12-07T11:02:01.642Z,815.50
2018-12-07T11:03:01.657Z,815.48
2018-12-07T11:04:01.667Z,815.43
2018-12-07T11:05:01.682Z,815.38
2018-12-07T11:06:01.696Z,815.36
2018-12-07T11:07:01.708Z,815.34
2018-12-07T11:08:01.721Z,815.33
2018-12-07T11:09:01.736Z,815.31
2018-12-07T11:10:01.750Z,815.27
2018-12-07T11:11:01.760Z,815.25
2018-12-07T11:12:01.775Z,815.20
2018-12-07T11:13:01.789Z,815.19
2018-12-07T11:14:01.803Z,815.11
2018-12-07T11:15:01.818Z,815.06
2018-12-07T11:16:01.829Z,815.03
2018-12-07T11:17:01.843Z,814.98
2018-12-07T11:18:01.859Z,814.96
2018-12-07T11:19:01.873Z,814.94
2018-12-07T11:20:01.897Z,814.95
2018-12-07T11:21:01.900Z,814.92
2018-12-07T11:22:01.920Z,814.88
2018-12-07T11:23:01.939Z,814.86
2018-12-07T11:24:01.946Z,814.84
2018-12-07T11:25:01.956Z,814.78
2018-12-07T11:26:01.973Z,814.79
2018-12-07T11:27:01.989Z,814.74
2018-12-07T11:28:02.001Z,814.74
2018-12-07T11:29:02.015Z,814.74
2018-12-07T11:30:02.032Z,814.68
2018-12-07T11:31:02.044Z,814.68
2018-12-07T11:32:02.059Z,814.68
2018-12-07T11:33:02.074Z,814.67
2018-12-07T11:34:02.091Z,814.64
2018-12-07T11:35:02.105Z,814.62
2018-12-07T11:36:08.142Z,814.57
2018-12-07T11:37:02.134Z,814.63
2018-12-07T11:38:02.151Z,814.64
2018-12-07T11:39:02.167Z,814.65
2018-12-07T11:40:02.180Z,814.68
2018-12-07T11:41:02.197Z,814.67
2018-12-07T11:42:02.211Z,814.59
2018-12-07T11:43:02.224Z,814.56
2018-12-07T11:44:02.240Z,814.57
2018-12-07T11:45:02.256Z,814.60
2018-12-07T11:46:02.271Z,814.63
2018-12-07T11:47:02.286Z,814.61
2018-12-07T11:48:02.300Z,814.58
2018-12-07T11:49:02.316Z,814.55
2018-12-07T11:50:02.333Z,814.50
2018-12-07T11:51:02.347Z,814.47
2018-12-07T11:52:02.365Z,814.46
2018-12-07T11:53:02.380Z,814.45
2018-12-07T11:54:02.393Z,814.45
2018-12-07T11:55:02.411Z,814.44
2018-12-07T11:56:02.426Z,814.44
2018-12-07T11:57:02.441Z,814.44
2018-12-07T11:58:02.459Z,814.44
2018-12-07T11:59:02.473Z,814.42
2018-12-07T12:00:02.494Z,814.46
2018-12-07T12:01:02.505Z,814.43
2018-12-07T12:02:02.522Z,814.44
2018-12-07T12:03:02.539Z,814.34
2018-12-07T12:04:02.554Z,814.38
2018-12-07T12:05:02.569Z,814.36
2018-12-07T12:06:02.585Z,814.38
2018-12-07T12:07:02.601Z,814.36
2018-12-07T12:08:02.619Z,814.38
2018-12-07T12:09:02.633Z,814.40
2018-12-07T12:10:02.650Z,814.39
2018-12-07T12:11:02.665Z,814.38
2018-12-07T12:12:02.683Z,814.43
2018-12-07T12:13:02.700Z,814.37
2018-12-07T12:14:02.720Z,814.35
2018-12-07T12:15:02.732Z,814.34
2018-12-07T12:16:02.748Z,814.33
2018-12-07T12:17:02.767Z,814.27
2018-12-07T12:18:02.787Z,814.27
2018-12-07T12:19:02.800Z,814.27
2018-12-07T12:20:02.821Z,814.21
2018-12-07T12:21:02.832Z,814.19
2018-12-07T12:22:02.851Z,814.12
2018-12-07T12:23:02.865Z,814.08
2018-12-07T12:24:02.882Z,814.07
2018-12-07T12:25:02.903Z,814.08
2018-12-07T12:26:02.925Z,814.06
2018-12-07T12:27:02.932Z,814.03
2018-12-07T12:28:02.951Z,814.08
2018-12-07T12:29:02.966Z,814.07